ExpreSS Skopelitis — SW3130 — position and weather

sailwx.info

Track history (hours):
 
Tides and Currents Weather Stations Pressure Air Temp Water Temp Dewpoint Dewpoint Depression Visibility Wind Speed Wind Dir Waves Ship Positions

ExpreSS Skopelitis

Last reported at 2014-Aug-30 07:08 UTC. Time now 2014-Aug-30 08:30 UTC.
Position N 36°53' E 025°30'.

Length 45 m; draft 2.4 m.

Type: Passenger vessel. MMSI: 237029400.

Date/timePositionNaut miles runAvg speedWind from/ knotsBaromVisibWave heightAir tempDewpointWater temp
2014-Aug-30 07:08N 36°53' E 025°30'5 8.6
2014-Aug-30 06:32N 36°56' E 025°36'9 9.0
2014-Aug-30 05:33N 36°52' E 025°46'5 0.6
2014-Aug-29 21:21N 36°50' E 025°52'5 0.7
2014-Aug-29 14:33N 36°52' E 025°46'10 9.7
2014-Aug-29 13:33N 36°55' E 025°35'6 5.6
2014-Aug-29 12:31N 36°53' E 025°28'1212.0
2014-Aug-29 11:33N 37°02' E 025°20'4 4.2
2014-Aug-29 10:33N 37°06' E 025°22'0 0.0
2014-Aug-29 09:33N 37°06' E 025°22'0 0.0
2014-Aug-29 08:33N 37°06' E 025°22'4 3.6
2014-Aug-29 07:33N 37°03' E 025°21'1211.7
2014-Aug-29 06:33N 36°53' E 025°28'6 5.9
2014-Aug-29 05:33N 36°55' E 025°35'9 9.3
2014-Aug-29 04:33N 36°52' E 025°46'6 2.8
2014-Aug-29 02:31N 36°50' E 025°52'0 0.0
2014-Aug-29 01:32N 36°50' E 025°52'0 0.0
2014-Aug-29 00:29N 36°50' E 025°52'0 0.0
2014-Aug-28 23:31N 36°50' E 025°52'5 0.6
2014-Aug-28 14:33N 36°52' E 025°46'9 9.3
2014-Aug-28 13:33N 36°56' E 025°35'7 6.9
2014-Aug-28 12:33N 36°52' E 025°28'1111.0
2014-Aug-28 11:33N 37°01' E 025°21'5 5.2
2014-Aug-28 10:34N 37°06' E 025°22'0 0.0
2014-Aug-28 09:33N 37°06' E 025°22'0 0.0
2014-Aug-28 08:33N 37°06' E 025°22'3 3.3
2014-Aug-28 07:33N 37°03' E 025°20'1211.7
2014-Aug-28 06:34N 36°53' E 025°28'5 5.3
2014-Aug-28 05:34N 36°55' E 025°34'9 9.4
2014-Aug-28 04:34N 36°52' E 025°45'6 1.4
2014-Aug-28 00:15N 36°50' E 025°52'0 0.0
2014-Aug-27 22:20N 36°50' E 025°52'0 0.0
2014-Aug-27 17:28N 36°50' E 025°52'7 7.6
2014-Aug-27 16:33N 36°54' E 025°59'1111.3
2014-Aug-27 15:33N 37°03' E 025°50'5 5.2
2014-Aug-27 14:33N 37°01' E 025°44'9 9.2
2014-Aug-27 13:33N 36°55' E 025°35'6 6.3
2014-Aug-27 12:33N 36°52' E 025°28'1211.0
2014-Aug-27 11:29N 37°02' E 025°21'5 4.9
2014-Aug-27 10:33N 37°06' E 025°22'0 0.0
2014-Aug-27 09:32N 37°06' E 025°22'7 7.2
2014-Aug-27 08:33N 36°59' E 025°22'9 7.1
2014-Aug-27 07:17N 36°53' E 025°30'6 8.6
2014-Aug-27 06:33N 36°56' E 025°37'1212.2
2014-Aug-27 05:33N 37°05' E 025°47'8 8.4
2014-Aug-27 04:33N 36°59' E 025°54'7 6.9
2014-Aug-27 03:33N 36°52' E 025°54'3 0.5
2014-Aug-26 21:08N 36°50' E 025°52'0 0.0
2014-Aug-26 17:30N 36°50' E 025°52'0 0.0
2014-Aug-26 16:33N 36°50' E 025°52'0 0.0
2014-Aug-26 15:33N 36°50' E 025°52'5 5.4
2014-Aug-26 14:33N 36°52' E 025°46'9 9.4
2014-Aug-26 13:33N 36°55' E 025°35'6 6.2
2014-Aug-26 12:33N 36°52' E 025°28'1111.2
2014-Aug-26 11:33N 37°01' E 025°21'5 5.1
2014-Aug-26 10:33N 37°06' E 025°22'0 0.0
2014-Aug-26 09:34N 37°06' E 025°22'0 0.0
2014-Aug-26 08:33N 37°06' E 025°22'4 4.1
2014-Aug-26 07:34N 37°03' E 025°21'1211.8
2014-Aug-26 06:33N 36°52' E 025°29'6 6.0
2014-Aug-26 05:34N 36°55' E 025°35'10 9.7
2014-Aug-26 04:33N 36°52' E 025°46'5 3.4
2014-Aug-26 03:06N 36°50' E 025°52'0 0.0
2014-Aug-26 02:29N 36°50' E 025°52'0 0.0
2014-Aug-26 00:24N 36°50' E 025°52'0 0.0
2014-Aug-25 23:32N 36°50' E 025°52'0 0.0
2014-Aug-25 22:33N 36°50' E 025°52'0 0.0
2014-Aug-25 21:33N 36°50' E 025°52'0 0.0
2014-Aug-25 20:33N 36°50' E 025°52'0 0.0
2014-Aug-25 19:31N 36°50' E 025°52'0 0.0
2014-Aug-25 18:33N 36°50' E 025°52'0 0.1
2014-Aug-25 17:22N 36°50' E 025°52'7 7.2
2014-Aug-25 16:24N 36°54' E 025°58'1112.4
2014-Aug-25 15:33N 37°02' E 025°50'5 4.9
2014-Aug-25 14:33N 37°01' E 025°44'9 9.2
2014-Aug-25 13:33N 36°55' E 025°35'7 6.7
2014-Aug-25 12:33N 36°52' E 025°28'1111.5
2014-Aug-25 11:33N 37°02' E 025°21'5 4.9
2014-Aug-25 10:34N 37°06' E 025°22'0 0.0
2014-Aug-25 09:33N 37°06' E 025°22'7 6.9
2014-Aug-25 08:33N 36°59' E 025°22'10 9.6
2014-Aug-25 07:34N 36°52' E 025°30'7 7.1
2014-Aug-25 06:33N 36°56' E 025°37'1312.7
2014-Aug-25 05:34N 37°06' E 025°47'8 8.4
2014-Aug-25 04:33N 36°59' E 025°54'7 6.2
2014-Aug-25 03:30N 36°52' E 025°54'3 0.3
2014-Aug-24 16:05N 36°50' E 025°52'0 0.0
2014-Aug-24 15:33N 36°50' E 025°52'4 4.2
2014-Aug-24 14:34N 36°51' E 025°47'1010.1
2014-Aug-24 13:33N 36°56' E 025°36'1212.2
2014-Aug-24 12:33N 36°50' E 025°22'8 8.1
2014-Aug-24 11:33N 36°43' E 025°16'9 9.3
2014-Aug-24 10:34N 36°35' E 025°19'1212.0
2014-Aug-24 09:33N 36°24' E 025°26'7 7.2
2014-Aug-24 08:33N 36°30' E 025°22'1312.5
2014-Aug-24 07:33N 36°42' E 025°28'1312.6
2014-Aug-24 06:33N 36°53' E 025°35'8 8.1
2014-Aug-24 05:34N 36°52' E 025°45'6 1.5
2014-Aug-24 01:22N 36°50' E 025°52'0 0.0
2014-Aug-24 00:32N 36°50' E 025°52'0 0.0
2014-Aug-23 22:05N 36°50' E 025°52'0 0.0
2014-Aug-23 21:31N 36°50' E 025°52'0 0.0
2014-Aug-23 20:32N 36°50' E 025°52'0 0.0
2014-Aug-23 19:31N 36°50' E 025°52'3 0.2
2014-Aug-23 03:33N 36°52' E 025°54'3 0.3
2014-Aug-22 16:32N 36°50' E 025°52'0 0.0
2014-Aug-22 15:34N 36°50' E 025°52'6 5.6
2014-Aug-22 14:33N 36°52' E 025°45'9 9.4
2014-Aug-22 13:33N 36°55' E 025°34'6 5.8
2014-Aug-22 12:33N 36°52' E 025°28'1111.6
2014-Aug-22 11:33N 37°02' E 025°21'5 4.9
2014-Aug-22 10:33N 37°06' E 025°22'0 0.0
2014-Aug-22 09:33N 37°06' E 025°22'0 0.0
2014-Aug-22 08:33N 37°06' E 025°22'4 4.2
2014-Aug-22 07:33N 37°02' E 025°21'1211.9
2014-Aug-22 06:33N 36°52' E 025°28'7 6.8
2014-Aug-22 05:33N 36°56' E 025°35'9 8.6
2014-Aug-22 04:33N 36°52' E 025°45'1 0.1
2014-Aug-21 14:33N 36°51' E 025°47'1010.1
2014-Aug-21 13:33N 36°55' E 025°35'7 6.5
2014-Aug-21 12:34N 36°52' E 025°28'1111.2
2014-Aug-21 11:33N 37°02' E 025°21'5 4.9
2014-Aug-21 10:33N 37°06' E 025°22'0 0.0
2014-Aug-21 09:34N 37°06' E 025°22'0 0.0
2014-Aug-21 08:34N 37°06' E 025°22'5 4.9
2014-Aug-21 07:34N 37°01' E 025°21'1111.0
2014-Aug-21 06:33N 36°52' E 025°28'6 5.9
2014-Aug-21 05:34N 36°55' E 025°34'10 9.5
2014-Aug-21 04:33N 36°52' E 025°46'6 5.0
2014-Aug-21 03:27N 36°50' E 025°52'0 0.0
2014-Aug-21 02:28N 36°50' E 025°52'0 0.0
2014-Aug-21 01:31N 36°50' E 025°52'0 0.0
2014-Aug-21 00:29N 36°50' E 025°52'0 0.0
2014-Aug-20 23:32N 36°50' E 025°52'0 0.0
2014-Aug-20 19:26N 36°50' E 025°52'0 0.0
2014-Aug-20 18:32N 36°50' E 025°52'1 1.2
2014-Aug-20 17:33N 36°50' E 025°50'7 7.1
2014-Aug-20 16:33N 36°55' E 025°56'1212.3
2014-Aug-20 15:33N 37°06' E 025°48'8 8.3
2014-Aug-20 14:33N 36°59' E 025°41'9 9.0
2014-Aug-20 13:33N 36°54' E 025°32'4 3.7
2014-Aug-20 12:33N 36°52' E 025°28'1211.6
2014-Aug-20 11:33N 37°02' E 025°21'5 4.7
2014-Aug-20 10:33N 37°06' E 025°22'0 0.0
2014-Aug-20 09:33N 37°06' E 025°22'8 7.9
2014-Aug-20 08:33N 36°59' E 025°23'9 8.8
2014-Aug-20 07:33N 36°52' E 025°31'  
Track history (hours):
 
Tides and Currents Weather Stations Pressure Air Temp Water Temp Dewpoint Dewpoint Depression Visibility Wind Speed Wind Dir Waves Ship Positions

ExpreSS Skopelitis

Last reported at 2014-Aug-30 07:08 UTC. Time now 2014-Aug-30 08:30 UTC.
Position N 36°53' E 025°30'.

Length 45 m; draft 2.4 m.

Type: Passenger vessel. MMSI: 237029400.

Date/timePositionNaut miles runAvg speedWind from/ knotsBaromVisibWave heightAir tempDewpointWater temp
2014-Aug-30 07:08N 36°53' E 025°30'5 8.6
2014-Aug-30 06:32N 36°56' E 025°36'9 9.0
2014-Aug-30 05:33N 36°52' E 025°46'5 0.6
2014-Aug-29 21:21N 36°50' E 025°52'5 0.7
2014-Aug-29 14:33N 36°52' E 025°46'10 9.7
2014-Aug-29 13:33N 36°55' E 025°35'6 5.6
2014-Aug-29 12:31N 36°53' E 025°28'1212.0
2014-Aug-29 11:33N 37°02' E 025°20'4 4.2
2014-Aug-29 10:33N 37°06' E 025°22'0 0.0
2014-Aug-29 09:33N 37°06' E 025°22'0 0.0
2014-Aug-29 08:33N 37°06' E 025°22'4 3.6
2014-Aug-29 07:33N 37°03' E 025°21'1211.7
2014-Aug-29 06:33N 36°53' E 025°28'6 5.9
2014-Aug-29 05:33N 36°55' E 025°35'9 9.3
2014-Aug-29 04:33N 36°52' E 025°46'6 2.8
2014-Aug-29 02:31N 36°50' E 025°52'0 0.0
2014-Aug-29 01:32N 36°50' E 025°52'0 0.0
2014-Aug-29 00:29N 36°50' E 025°52'0 0.0
2014-Aug-28 23:31N 36°50' E 025°52'5 0.6
2014-Aug-28 14:33N 36°52' E 025°46'9 9.3
2014-Aug-28 13:33N 36°56' E 025°35'7 6.9
2014-Aug-28 12:33N 36°52' E 025°28'1111.0
2014-Aug-28 11:33N 37°01' E 025°21'5 5.2
2014-Aug-28 10:34N 37°06' E 025°22'0 0.0
2014-Aug-28 09:33N 37°06' E 025°22'0 0.0
2014-Aug-28 08:33N 37°06' E 025°22'3 3.3
2014-Aug-28 07:33N 37°03' E 025°20'1211.7
2014-Aug-28 06:34N 36°53' E 025°28'5 5.3
2014-Aug-28 05:34N 36°55' E 025°34'9 9.4
2014-Aug-28 04:34N 36°52' E 025°45'6 1.4
2014-Aug-28 00:15N 36°50' E 025°52'0 0.0
2014-Aug-27 22:20N 36°50' E 025°52'0 0.0
2014-Aug-27 17:28N 36°50' E 025°52'7 7.6
2014-Aug-27 16:33N 36°54' E 025°59'1111.3
2014-Aug-27 15:33N 37°03' E 025°50'5 5.2
2014-Aug-27 14:33N 37°01' E 025°44'9 9.2
2014-Aug-27 13:33N 36°55' E 025°35'6 6.3
2014-Aug-27 12:33N 36°52' E 025°28'1211.0
2014-Aug-27 11:29N 37°02' E 025°21'5 4.9
2014-Aug-27 10:33N 37°06' E 025°22'0 0.0
2014-Aug-27 09:32N 37°06' E 025°22'7 7.2
2014-Aug-27 08:33N 36°59' E 025°22'9 7.1
2014-Aug-27 07:17N 36°53' E 025°30'6 8.6
2014-Aug-27 06:33N 36°56' E 025°37'1212.2
2014-Aug-27 05:33N 37°05' E 025°47'8 8.4
2014-Aug-27 04:33N 36°59' E 025°54'7 6.9
2014-Aug-27 03:33N 36°52' E 025°54'3 0.5
2014-Aug-26 21:08N 36°50' E 025°52'0 0.0
2014-Aug-26 17:30N 36°50' E 025°52'0 0.0
2014-Aug-26 16:33N 36°50' E 025°52'0 0.0
2014-Aug-26 15:33N 36°50' E 025°52'5 5.4
2014-Aug-26 14:33N 36°52' E 025°46'9 9.4
2014-Aug-26 13:33N 36°55' E 025°35'6 6.2
2014-Aug-26 12:33N 36°52' E 025°28'1111.2
2014-Aug-26 11:33N 37°01' E 025°21'5 5.1
2014-Aug-26 10:33N 37°06' E 025°22'0 0.0
2014-Aug-26 09:34N 37°06' E 025°22'0 0.0
2014-Aug-26 08:33N 37°06' E 025°22'4 4.1
2014-Aug-26 07:34N 37°03' E 025°21'1211.8
2014-Aug-26 06:33N 36°52' E 025°29'6 6.0
2014-Aug-26 05:34N 36°55' E 025°35'10 9.7
2014-Aug-26 04:33N 36°52' E 025°46'5 3.4
2014-Aug-26 03:06N 36°50' E 025°52'0 0.0
2014-Aug-26 02:29N 36°50' E 025°52'0 0.0
2014-Aug-26 00:24N 36°50' E 025°52'0 0.0
2014-Aug-25 23:32N 36°50' E 025°52'0 0.0
2014-Aug-25 22:33N 36°50' E 025°52'0 0.0
2014-Aug-25 21:33N 36°50' E 025°52'0 0.0
2014-Aug-25 20:33N 36°50' E 025°52'0 0.0
2014-Aug-25 19:31N 36°50' E 025°52'0 0.0
2014-Aug-25 18:33N 36°50' E 025°52'0 0.1
2014-Aug-25 17:22N 36°50' E 025°52'7 7.2
2014-Aug-25 16:24N 36°54' E 025°58'1112.4
2014-Aug-25 15:33N 37°02' E 025°50'5 4.9
2014-Aug-25 14:33N 37°01' E 025°44'9 9.2
2014-Aug-25 13:33N 36°55' E 025°35'7 6.7
2014-Aug-25 12:33N 36°52' E 025°28'1111.5
2014-Aug-25 11:33N 37°02' E 025°21'5 4.9
2014-Aug-25 10:34N 37°06' E 025°22'0 0.0
2014-Aug-25 09:33N 37°06' E 025°22'7 6.9
2014-Aug-25 08:33N 36°59' E 025°22'10 9.6
2014-Aug-25 07:34N 36°52' E 025°30'7 7.1
2014-Aug-25 06:33N 36°56' E 025°37'1312.7
2014-Aug-25 05:34N 37°06' E 025°47'8 8.4
2014-Aug-25 04:33N 36°59' E 025°54'7 6.2
2014-Aug-25 03:30N 36°52' E 025°54'3 0.3
2014-Aug-24 16:05N 36°50' E 025°52'0 0.0
2014-Aug-24 15:33N 36°50' E 025°52'4 4.2
2014-Aug-24 14:34N 36°51' E 025°47'1010.1
2014-Aug-24 13:33N 36°56' E 025°36'1212.2
2014-Aug-24 12:33N 36°50' E 025°22'8 8.1
2014-Aug-24 11:33N 36°43' E 025°16'9 9.3
2014-Aug-24 10:34N 36°35' E 025°19'1212.0
2014-Aug-24 09:33N 36°24' E 025°26'7 7.2
2014-Aug-24 08:33N 36°30' E 025°22'1312.5
2014-Aug-24 07:33N 36°42' E 025°28'1312.6
2014-Aug-24 06:33N 36°53' E 025°35'8 8.1
2014-Aug-24 05:34N 36°52' E 025°45'6 1.5
2014-Aug-24 01:22N 36°50' E 025°52'0 0.0
2014-Aug-24 00:32N 36°50' E 025°52'0 0.0
2014-Aug-23 22:05N 36°50' E 025°52'0 0.0
2014-Aug-23 21:31N 36°50' E 025°52'0 0.0
2014-Aug-23 20:32N 36°50' E 025°52'0 0.0
2014-Aug-23 19:31N 36°50' E 025°52'3 0.2
2014-Aug-23 03:33N 36°52' E 025°54'3 0.3
2014-Aug-22 16:32N 36°50' E 025°52'0 0.0
2014-Aug-22 15:34N 36°50' E 025°52'6 5.6
2014-Aug-22 14:33N 36°52' E 025°45'9 9.4
2014-Aug-22 13:33N 36°55' E 025°34'6 5.8
2014-Aug-22 12:33N 36°52' E 025°28'1111.6
2014-Aug-22 11:33N 37°02' E 025°21'5 4.9
2014-Aug-22 10:33N 37°06' E 025°22'0 0.0
2014-Aug-22 09:33N 37°06' E 025°22'0 0.0
2014-Aug-22 08:33N 37°06' E 025°22'4 4.2
2014-Aug-22 07:33N 37°02' E 025°21'1211.9
2014-Aug-22 06:33N 36°52' E 025°28'7 6.8
2014-Aug-22 05:33N 36°56' E 025°35'9 8.6
2014-Aug-22 04:33N 36°52' E 025°45'1 0.1
2014-Aug-21 14:33N 36°51' E 025°47'1010.1
2014-Aug-21 13:33N 36°55' E 025°35'7 6.5
2014-Aug-21 12:34N 36°52' E 025°28'1111.2
2014-Aug-21 11:33N 37°02' E 025°21'5 4.9
2014-Aug-21 10:33N 37°06' E 025°22'0 0.0
2014-Aug-21 09:34N 37°06' E 025°22'0 0.0
2014-Aug-21 08:34N 37°06' E 025°22'5 4.9
2014-Aug-21 07:34N 37°01' E 025°21'1111.0
2014-Aug-21 06:33N 36°52' E 025°28'6 5.9
2014-Aug-21 05:34N 36°55' E 025°34'10 9.5
2014-Aug-21 04:33N 36°52' E 025°46'6 5.0
2014-Aug-21 03:27N 36°50' E 025°52'0 0.0
2014-Aug-21 02:28N 36°50' E 025°52'0 0.0
2014-Aug-21 01:31N 36°50' E 025°52'0 0.0
2014-Aug-21 00:29N 36°50' E 025°52'0 0.0
2014-Aug-20 23:32N 36°50' E 025°52'0 0.0
2014-Aug-20 19:26N 36°50' E 025°52'0 0.0
2014-Aug-20 18:32N 36°50' E 025°52'1 1.2
2014-Aug-20 17:33N 36°50' E 025°50'7 7.1
2014-Aug-20 16:33N 36°55' E 025°56'1212.3
2014-Aug-20 15:33N 37°06' E 025°48'8 8.3
2014-Aug-20 14:33N 36°59' E 025°41'9 9.0
2014-Aug-20 13:33N 36°54' E 025°32'4 3.7
2014-Aug-20 12:33N 36°52' E 025°28'1211.6
2014-Aug-20 11:33N 37°02' E 025°21'5 4.7
2014-Aug-20 10:33N 37°06' E 025°22'0 0.0
2014-Aug-20 09:33N 37°06' E 025°22'8 7.9
2014-Aug-20 08:33N 36°59' E 025°23'9 8.8
2014-Aug-20 07:33N 36°52' E 025°31'  

Dump ship's entire track history